Time;durP1;ratioP1;P1;durP2;ratioP2;P2;SDS_P1;SDS_P2;PMS_P1;PMS_P2;Temp;Humidity;BMP_temperature;BMP_pressure;BME280_temperature;BME280_humidity;BME280_pressure;Samples;Min_cycle;Max_cycle;Signal;HPM_P1;HPM_P2
2022/10/24 00:02:41;;;;;;;8.65;2.50;;;14.80;99.90;;;;;;4974260;28;20092;-85
2022/10/24 00:05:16;;;;;;;9.00;2.67;;;14.90;99.90;;;;;;4955928;28;20142;-85
2022/10/24 00:07:45;;;;;;;10.35;2.40;;;14.80;99.90;;;;;;4956266;28;20055;-85
2022/10/24 00:10:12;;;;;;;7.55;2.13;;;14.80;99.90;;;;;;4955408;28;20042;-86
2022/10/24 00:13:15;;;;;;;10.00;3.10;;;14.80;99.90;;;;;;4956128;28;20042;-85
2022/10/24 00:15:48;;;;;;;8.75;2.88;;;14.70;99.90;;;;;;4955234;28;20058;-85
2022/10/24 00:18:15;;;;;;;9.50;2.83;;;14.70;99.90;;;;;;4954897;28;20061;-85
2022/10/24 00:20:56;;;;;;;8.07;2.60;;;15.90;99.90;;;;;;4958188;28;20049;-85
2022/10/24 00:23:22;;;;;;;9.48;2.60;;;15.00;99.90;;;;;;4955235;28;20491;-85
2022/10/24 00:25:50;;;;;;;8.57;2.35;;;14.60;99.90;;;;;;4956170;28;20046;-85
2022/10/24 00:28:16;;;;;;;7.70;2.40;;;14.50;99.90;;;;;;4973408;28;20046;-85
2022/10/24 00:30:42;;;;;;;8.98;2.80;;;14.50;99.90;;;;;;4972592;28;20039;-85
2022/10/24 00:33:07;;;;;;;9.13;2.70;;;14.70;99.90;;;;;;4955714;28;20554;-85
2022/10/24 00:35:33;;;;;;;9.60;2.78;;;14.50;99.90;;;;;;4956217;28;20133;-85
2022/10/24 00:37:59;;;;;;;10.30;2.45;;;15.30;99.90;;;;;;4975828;28;20070;-85
2022/10/24 00:40:43;;;;;;;8.70;2.50;;;14.80;99.90;;;;;;4956493;28;20578;-85
2022/10/24 00:43:25;;;;;;;7.38;2.22;;;14.40;99.90;;;;;;4957187;28;20038;-85
2022/10/24 00:46:03;;;;;;;8.43;2.40;;;14.90;99.90;;;;;;4976759;28;20043;-85
2022/10/24 00:48:47;;;;;;;10.25;2.53;;;14.40;99.90;;;;;;4976703;28;20465;-85
2022/10/24 00:51:26;;;;;;;10.07;2.50;;;14.30;99.90;;;;;;4975693;28;20070;-85
2022/10/24 00:53:58;;;;;;;8.68;2.53;;;14.30;99.90;;;;;;4959650;28;20057;-85
2022/10/24 00:56:29;;;;;;;10.07;2.85;;;14.30;99.90;;;;;;4976976;28;20046;-85
2022/10/24 00:58:58;;;;;;;10.65;2.80;;;14.30;99.90;;;;;;4959129;28;20074;-85
2022/10/24 01:01:25;;;;;;;9.35;2.50;;;14.30;99.90;;;;;;4976430;28;20054;-85
2022/10/24 01:03:50;;;;;;;10.50;2.60;;;14.30;99.90;;;;;;4959587;28;20509;-85
2022/10/24 01:06:28;;;;;;;11.77;2.80;;;14.20;99.90;;;;;;4975788;28;20046;-85
2022/10/24 01:09:11;;;;;;;8.98;2.70;;;14.30;99.90;;;;;;4959484;28;20050;-85
2022/10/24 01:12:07;;;;;;;10.82;3.15;;;14.30;99.90;;;;;;4976942;28;20134;-85
2022/10/24 01:14:57;;;;;;;11.15;2.88;;;14.30;99.90;;;;;;4963550;28;20078;-85
2022/10/24 01:17:43;;;;;;;11.43;3.03;;;14.40;99.90;;;;;;4959354;28;20526;-85
2022/10/24 01:20:43;;;;;;;9.15;2.95;;;15.00;99.90;;;;;;4958252;28;20047;-85
2022/10/24 01:23:43;;;;;;;10.10;3.10;;;14.50;99.90;;;;;;4958894;28;20055;-85
2022/10/24 01:26:08;;;;;;;10.82;3.25;;;14.60;99.90;;;;;;4975872;28;20406;-86
2022/10/24 01:28:48;;;;;;;9.85;3.20;;;14.60;99.90;;;;;;4976383;28;20487;-85
2022/10/24 01:31:43;;;;;;;12.32;3.42;;;14.60;99.90;;;;;;4958596;28;20078;-85
2022/10/24 01:34:19;;;;;;;14.13;3.15;;;14.70;99.90;;;;;;4943911;28;20065;-85
2022/10/24 01:37:03;;;;;;;12.65;3.30;;;14.70;99.90;;;;;;4958809;28;20043;-85
2022/10/24 01:39:39;;;;;;;9.95;3.28;;;14.70;99.90;;;;;;4958764;28;20039;-85
2022/10/24 01:42:08;;;;;;;12.48;3.40;;;14.70;99.90;;;;;;4958075;28;20047;-85
2022/10/24 01:44:44;;;;;;;11.18;3.30;;;14.60;99.90;;;;;;4976420;28;20053;-85
2022/10/24 01:47:15;;;;;;;11.63;3.45;;;15.40;99.90;;;;;;4957928;28;20039;-85
2022/10/24 01:49:46;;;;;;;13.07;3.58;;;15.00;99.90;;;;;;4959636;28;20062;-85
2022/10/24 01:52:15;;;;;;;11.38;3.60;;;14.50;99.90;;;;;;4976360;28;20055;-85
2022/10/24 01:54:45;;;;;;;12.30;3.38;;;15.20;99.90;;;;;;4975473;28;20047;-85
2022/10/24 01:57:12;;;;;;;10.18;3.30;;;14.30;99.90;;;;;;4958964;28;20109;-85
2022/10/24 01:59:46;;;;;;;10.40;3.15;;;14.40;99.90;;;;;;4975815;28;20487;-85
2022/10/24 02:02:34;;;;;;;11.30;3.30;;;14.30;99.90;;;;;;4940844;29;20039;-85
2022/10/24 02:05:15;;;;;;;9.45;3.60;;;14.20;99.90;;;;;;4939206;29;20407;-85
2022/10/24 02:07:44;;;;;;;10.30;3.50;;;14.20;99.90;;;;;;4955375;29;20047;-85
2022/10/24 02:10:21;;;;;;;11.45;3.92;;;14.60;99.90;;;;;;4954007;29;20047;-85
2022/10/24 02:13:04;;;;;;;10.38;3.50;;;15.00;99.90;;;;;;4946334;23;20055;-85
2022/10/24 02:15:35;;;;;;;9.52;3.30;;;14.50;99.90;;;;;;4938105;29;20141;-85
2022/10/24 02:18:01;;;;;;;10.82;3.20;;;14.20;99.90;;;;;;4956360;29;20094;-85
2022/10/24 02:20:36;;;;;;;12.32;3.63;;;15.10;99.90;;;;;;4938627;29;20046;-85
2022/10/24 02:23:25;;;;;;;11.18;3.70;;;14.10;99.90;;;;;;4938272;29;20039;-85
2022/10/24 02:25:53;;;;;;;10.02;3.63;;;14.10;99.90;;;;;;4957513;29;20043;-86
2022/10/24 02:28:23;;;;;;;10.05;3.30;;;14.00;99.90;;;;;;4956701;29;20040;-84
2022/10/24 02:30:54;;;;;;;11.85;3.78;;;14.40;99.90;;;;;;4938150;29;20043;-85
2022/10/24 02:33:22;;;;;;;14.05;3.75;;;14.00;99.90;;;;;;4938523;29;20039;-85
2022/10/24 02:35:49;;;;;;;11.63;3.58;;;13.90;99.90;;;;;;4956378;29;20118;-85
2022/10/24 02:38:30;;;;;;;10.23;3.33;;;13.90;99.90;;;;;;4955173;29;20497;-85
2022/10/24 02:40:58;;;;;;;10.70;3.40;;;13.90;99.90;;;;;;4956278;29;20074;-85
2022/10/24 02:43:25;;;;;;;11.93;3.45;;;13.90;99.90;;;;;;4954974;29;20119;-85
2022/10/24 02:45:53;;;;;;;10.25;3.10;;;13.80;99.90;;;;;;4955620;29;20126;-85
2022/10/24 02:48:24;;;;;;;11.18;3.40;;;13.80;99.90;;;;;;4955133;29;20055;-85
2022/10/24 02:50:54;;;;;;;13.65;3.85;;;13.80;99.90;;;;;;4955124;29;20043;-85
2022/10/24 02:53:23;;;;;;;8.90;3.00;;;13.80;99.90;;;;;;4938267;29;20117;-85
2022/10/24 02:55:49;;;;;;;10.43;3.50;;;13.80;99.90;;;;;;4955191;29;20487;-85
2022/10/24 02:58:15;;;;;;;12.95;3.17;;;13.80;99.90;;;;;;4936714;29;20051;-85
2022/10/24 03:00:41;;;;;;;11.80;3.60;;;13.80;99.90;;;;;;4938138;29;20047;-85
2022/10/24 03:03:06;;;;;;;11.70;3.53;;;13.80;99.90;;;;;;4941725;29;20044;-85
2022/10/24 03:05:32;;;;;;;10.65;3.53;;;13.80;99.90;;;;;;4954449;28;20372;-85
2022/10/24 03:07:58;;;;;;;9.90;3.30;;;13.80;99.90;;;;;;4938257;29;20095;-85
2022/10/24 03:10:23;;;;;;;9.43;3.70;;;13.70;99.90;;;;;;4937591;29;20107;-85
2022/10/24 03:12:49;;;;;;;14.40;3.38;;;13.80;99.90;;;;;;4937087;29;20488;-86
2022/10/24 03:15:14;;;;;;;11.93;3.63;;;14.10;99.90;;;;;;4937728;29;20075;-85
2022/10/24 03:17:40;;;;;;;10.07;3.85;;;14.80;99.90;;;;;;4937817;29;20054;-85
2022/10/24 03:20:06;;;;;;;11.77;3.40;;;13.90;99.90;;;;;;4954288;29;20385;-85
2022/10/24 03:22:32;;;;;;;9.80;3.22;;;13.80;99.90;;;;;;4955068;29;20079;-85
2022/10/24 03:25:05;;;;;;;13.80;3.30;;;14.60;99.90;;;;;;4938217;29;20051;-85
2022/10/24 03:27:32;;;;;;;12.50;3.85;;;13.80;99.90;;;;;;4936780;29;20567;-85
2022/10/24 03:30:01;;;;;;;11.63;3.70;;;15.00;99.90;;;;;;4937605;29;20051;-85
2022/10/24 03:32:27;;;;;;;9.15;3.10;;;13.80;99.90;;;;;;4936482;29;20097;-85
2022/10/24 03:34:52;;;;;;;10.55;3.60;;;14.60;99.90;;;;;;4937929;29;20082;-85
2022/10/24 03:37:21;;;;;;;11.40;4.07;;;14.00;99.90;;;;;;4956524;29;20066;-85
2022/10/24 03:39:47;;;;;;;12.95;3.35;;;14.10;99.90;;;;;;4939742;29;20084;-86
2022/10/24 03:42:12;;;;;;;12.25;3.20;;;14.10;99.90;;;;;;4937180;29;20079;-85
2022/10/24 03:44:38;;;;;;;10.20;3.65;;;14.30;99.90;;;;;;4937661;29;20547;-85
2022/10/24 03:47:04;;;;;;;10.05;3.10;;;14.70;99.90;;;;;;4954242;29;20043;-85
2022/10/24 03:49:31;;;;;;;9.65;3.10;;;14.40;99.90;;;;;;4937223;29;20051;-85
2022/10/24 03:51:56;;;;;;;8.85;3.10;;;14.50;99.90;;;;;;4937506;29;20061;-85
2022/10/24 03:54:22;;;;;;;11.10;3.22;;;14.60;99.90;;;;;;4936759;29;20039;-85
2022/10/24 03:56:48;;;;;;;11.25;3.13;;;14.70;99.90;;;;;;5230009;23;20592;-86
2022/10/24 03:59:15;;;;;;;10.55;2.80;;;15.40;99.90;;;;;;5256431;23;20042;-85
2022/10/24 04:01:44;;;;;;;9.63;2.80;;;14.90;99.90;;;;;;4969343;28;20057;-85
2022/10/24 04:04:27;;;;;;;13.32;2.97;;;15.00;99.90;;;;;;4987454;28;20042;-85
2022/10/24 04:06:52;;;;;;;9.23;2.65;;;15.10;99.90;;;;;;4994788;28;20136;-85
2022/10/24 04:09:18;;;;;;;8.85;2.40;;;15.20;99.90;;;;;;4994196;28;20457;-85
2022/10/24 04:11:44;;;;;;;9.57;2.88;;;15.20;99.90;;;;;;4995317;28;20048;-85
2022/10/24 04:14:17;;;;;;;11.13;2.67;;;15.20;99.90;;;;;;4999457;28;20042;-85
2022/10/24 04:16:51;;;;;;;9.32;2.60;;;16.50;99.90;;;;;;5012707;28;20049;-85
2022/10/24 04:19:17;;;;;;;8.77;2.60;;;16.40;99.90;;;;;;4997951;28;20429;-85
2022/10/24 04:21:44;;;;;;;9.32;2.53;;;15.10;99.90;;;;;;5016015;28;20065;-85
2022/10/24 04:24:10;;;;;;;9.65;2.40;;;15.30;99.90;;;;;;5016749;28;20042;-85
2022/10/24 04:26:38;;;;;;;9.27;2.50;;;15.30;99.90;;;;;;5016969;28;20049;-85
2022/10/24 04:29:03;;;;;;;8.82;2.45;;;15.50;99.90;;;;;;5015853;28;20485;-85
2022/10/24 04:31:29;;;;;;;11.50;2.78;;;15.60;99.90;;;;;;4998586;28;20141;-85
2022/10/24 04:33:56;;;;;;;13.63;2.67;;;15.40;99.90;;;;;;4998842;28;20099;-85
2022/10/24 04:36:21;;;;;;;7.88;2.50;;;15.30;99.90;;;;;;4998141;28;20137;-85
2022/10/24 04:38:47;;;;;;;12.45;2.60;;;15.30;99.90;;;;;;5016518;28;20070;-85
2022/10/24 04:41:12;;;;;;;10.10;2.75;;;16.00;99.90;;;;;;5016216;28;20091;-85
2022/10/24 04:43:39;;;;;;;9.38;2.17;;;15.30;99.90;;;;;;4998065;28;20141;-85
2022/10/24 04:46:05;;;;;;;7.93;2.55;;;15.20;99.90;;;;;;4999022;28;20080;-85
2022/10/24 04:48:31;;;;;;;9.50;2.60;;;15.10;99.90;;;;;;4998883;28;20045;-85
2022/10/24 04:50:57;;;;;;;10.85;3.00;;;15.10;99.90;;;;;;4999119;28;20042;-85
2022/10/24 04:53:23;;;;;;;7.45;2.38;;;15.00;99.90;;;;;;4998630;28;20085;-85
2022/10/24 04:55:48;;;;;;;11.45;2.30;;;15.20;99.90;;;;;;5016320;28;20081;-85
2022/10/24 04:58:14;;;;;;;10.98;2.78;;;14.90;99.90;;;;;;4997354;28;20081;-85
2022/10/24 05:00:45;;;;;;;8.98;2.40;;;15.60;99.90;;;;;;4995012;28;20133;-85
2022/10/24 05:03:11;;;;;;;9.95;2.33;;;15.50;99.90;;;;;;4994804;28;20061;-85
2022/10/24 05:05:37;;;;;;;8.88;2.40;;;14.90;99.90;;;;;;4994491;28;20038;-85
2022/10/24 05:08:17;;;;;;;8.60;2.55;;;15.50;99.90;;;;;;4995011;28;20046;-85
2022/10/24 05:10:43;;;;;;;11.43;2.50;;;14.90;99.90;;;;;;4996591;28;20050;-85
2022/10/24 05:13:14;;;;;;;8.75;2.63;;;16.10;99.90;;;;;;4995524;28;20132;-85
2022/10/24 05:15:40;;;;;;;8.32;2.47;;;14.80;99.90;;;;;;4996210;28;20046;-85
2022/10/24 05:18:15;;;;;;;8.45;2.40;;;16.00;99.90;;;;;;4994277;28;20039;-85
2022/10/24 05:20:47;;;;;;;7.28;2.28;;;14.80;99.90;;;;;;4995040;28;20478;-85
2022/10/24 05:23:25;;;;;;;9.40;2.53;;;15.90;99.90;;;;;;4994262;28;20038;-85
2022/10/24 05:25:51;;;;;;;12.40;2.50;;;15.00;99.90;;;;;;4998035;28;20053;-87
2022/10/24 05:28:17;;;;;;;18.55;3.35;;;14.70;99.90;;;;;;4995582;28;20047;-85
2022/10/24 05:30:43;;;;;;;9.57;2.20;;;14.70;99.90;;;;;;4995926;28;20054;-85
2022/10/24 05:33:09;;;;;;;7.78;2.40;;;15.80;99.90;;;;;;4994116;28;20057;-84
2022/10/24 05:35:37;;;;;;;7.43;2.40;;;14.70;99.90;;;;;;4995908;28;20117;-85
2022/10/24 05:38:03;;;;;;;10.43;2.30;;;15.20;99.90;;;;;;4994325;28;20475;-85
2022/10/24 05:40:35;;;;;;;7.20;2.00;;;14.60;99.90;;;;;;4994540;28;20046;-85
2022/10/24 05:43:00;;;;;;;7.00;2.30;;;15.70;99.90;;;;;;4994626;28;20042;-85
2022/10/24 05:45:26;;;;;;;9.15;2.20;;;14.60;99.90;;;;;;4994130;28;20108;-85
2022/10/24 05:47:51;;;;;;;9.82;2.50;;;14.50;99.90;;;;;;4994465;28;20042;-85
2022/10/24 05:50:42;;;;;;;6.72;2.05;;;14.50;99.90;;;;;;4994326;28;20084;-85
2022/10/24 05:53:08;;;;;;;7.07;1.95;;;14.40;99.90;;;;;;4994833;28;20498;-85
2022/10/24 05:55:35;;;;;;;10.88;2.17;;;14.50;99.90;;;;;;4995684;28;20042;-86
2022/10/24 05:58:10;;;;;;;7.75;2.58;;;15.20;99.90;;;;;;4994355;28;20133;-83
2022/10/24 06:01:10;;;;;;;7.18;2.10;;;15.10;99.90;;;;;;4997227;28;20058;-84
2022/10/24 06:03:35;;;;;;;7.88;2.15;;;14.50;99.90;;;;;;4997765;28;20042;-84
2022/10/24 06:06:06;;;;;;;16.00;4.82;;;15.50;99.90;;;;;;5015118;28;20061;-84
2022/10/24 06:08:36;;;;;;;7.05;2.20;;;14.40;99.90;;;;;;4996409;28;20373;-84
2022/10/24 06:11:02;;;;;;;8.70;2.38;;;14.50;99.90;;;;;;5015014;28;20049;-84
2022/10/24 06:13:28;;;;;;;7.40;2.50;;;14.50;99.90;;;;;;4996776;28;20053;-83
2022/10/24 06:15:54;;;;;;;8.95;2.00;;;14.50;99.90;;;;;;4996171;28;20037;-83
2022/10/24 06:18:22;;;;;;;7.70;2.40;;;14.60;99.90;;;;;;4996684;28;20046;-83
2022/10/24 06:20:48;;;;;;;8.00;2.20;;;14.60;99.90;;;;;;5014690;28;20045;-83
2022/10/24 06:23:22;;;;;;;8.50;2.22;;;15.50;99.90;;;;;;5013171;28;20092;-83
2022/10/24 06:26:06;;;;;;;7.97;2.40;;;14.60;99.90;;;;;;4996651;28;20069;-83
2022/10/24 06:28:31;;;;;;;;;;;14.30;99.90;;;;;;4996535;28;20037;-83
2022/10/24 06:30:57;;;;;;;9.10;3.22;;;14.70;99.90;;;;;;4997311;28;19968;-83
2022/10/24 06:33:25;;;;;;;9.98;2.40;;;14.80;99.90;;;;;;4996288;28;20053;-83
2022/10/24 06:35:52;;;;;;;9.52;3.58;;;14.90;99.90;;;;;;4996339;28;20133;-82
2022/10/24 06:38:32;;;;;;;10.60;2.50;;;15.00;99.90;;;;;;4999167;28;20061;-83
2022/10/24 06:40:58;;;;;;;9.63;3.38;;;15.00;99.90;;;;;;4998283;28;20128;-84
2022/10/24 06:43:24;;;;;;;7.65;2.20;;;15.00;99.90;;;;;;4995975;28;20507;-84
2022/10/24 06:45:50;;;;;;;11.30;2.00;;;15.00;99.90;;;;;;4996943;28;20393;-83
2022/10/24 06:48:15;;;;;;;10.82;2.55;;;14.90;99.90;;;;;;4996310;28;20505;-83
2022/10/24 06:50:41;;;;;;;9.27;2.33;;;15.60;99.90;;;;;;5013393;28;20045;-83
2022/10/24 06:53:08;;;;;;;8.57;2.00;;;15.90;99.90;;;;;;4995851;28;20049;-83
2022/10/24 06:55:36;;;;;;;8.20;2.50;;;14.80;99.90;;;;;;4997574;28;20050;-83
2022/10/24 06:58:02;;;;;;;7.78;2.42;;;14.80;99.90;;;;;;5014448;28;20045;-83
2022/10/24 07:00:28;;;;;;;7.78;2.50;;;14.90;99.90;;;;;;5013810;28;20054;-84
2022/10/24 07:06:08;;;;;;;10.00;2.15;;;15.00;99.90;;;;;;5480629;23;20055;-84
2022/10/24 07:08:37;;;;;;;11.68;2.28;;;14.30;99.90;;;;;;4957387;28;20042;-83
2022/10/24 07:11:03;;;;;;;9.73;2.03;;;15.90;99.90;;;;;;4974034;28;20130;-84
2022/10/24 07:13:38;;;;;;;9.70;2.13;;;15.00;99.90;;;;;;4958503;28;20055;-83
2022/10/24 07:16:04;;;;;;;7.60;1.92;;;14.60;99.90;;;;;;4974558;28;20415;-84
2022/10/24 07:18:29;;;;;;;7.40;1.98;;;15.00;99.90;;;;;;4956278;28;20042;-84
2022/10/24 07:21:01;;;;;;;10.23;2.33;;;14.90;99.90;;;;;;4974706;28;20035;-83
2022/10/24 07:23:26;;;;;;;8.45;2.45;;;15.00;99.90;;;;;;4956918;28;20498;-84
2022/10/24 07:25:52;;;;;;;6.88;1.85;;;15.00;99.90;;;;;;4973822;28;20093;-84
2022/10/24 07:28:21;;;;;;;11.05;2.10;;;15.00;99.90;;;;;;4974211;28;20038;-84
2022/10/24 07:30:46;;;;;;;10.68;2.15;;;15.40;99.90;;;;;;4974089;28;20125;-84
2022/10/24 07:33:15;;;;;;;8.68;2.00;;;16.00;99.90;;;;;;4956203;28;20464;-84
2022/10/24 07:35:42;;;;;;;11.30;2.67;;;16.00;99.90;;;;;;4965508;28;20045;-84
2022/10/24 07:38:07;;;;;;;6.75;1.92;;;15.20;99.90;;;;;;4971199;28;20050;-83
2022/10/24 07:40:34;;;;;;;9.63;2.45;;;15.20;99.90;;;;;;5059756;23;20449;-83
2022/10/24 07:42:59;;;;;;;11.93;2.10;;;16.20;99.90;;;;;;4948184;28;20047;-83
2022/10/24 07:45:26;;;;;;;7.88;1.95;;;15.60;99.90;;;;;;4942310;28;20410;-82
2022/10/24 07:47:52;;;;;;;9.10;2.20;;;15.60;99.90;;;;;;4936683;29;20051;-84
2022/10/24 07:50:21;;;;;;;10.93;2.40;;;15.80;99.90;;;;;;4960260;29;20039;-83
2022/10/24 07:52:47;;;;;;;9.30;2.33;;;16.70;99.90;;;;;;4936726;29;20061;-84
2022/10/24 07:55:12;;;;;;;8.88;2.53;;;15.80;99.90;;;;;;4954657;28;20106;-84
2022/10/24 07:57:38;;;;;;;8.25;1.85;;;16.10;99.90;;;;;;4937777;29;20043;-84
2022/10/24 08:00:04;;;;;;;7.70;2.05;;;16.60;99.90;;;;;;4953737;29;20055;-84
2022/10/24 08:02:30;;;;;;;9.25;1.95;;;15.90;99.90;;;;;;4953649;28;20133;-84
2022/10/24 08:04:55;;;;;;;9.60;1.98;;;16.30;99.90;;;;;;4957515;28;20093;-85
2022/10/24 08:07:21;;;;;;;8.27;2.50;;;16.80;99.90;;;;;;4972766;28;20039;-85
2022/10/24 08:09:47;;;;;;;10.15;1.88;;;15.90;99.90;;;;;;4973638;28;20039;-86
2022/10/24 08:12:13;;;;;;;8.82;2.10;;;16.20;99.90;;;;;;4954594;28;20494;-86
2022/10/24 08:14:40;;;;;;;7.90;1.83;;;16.50;99.90;;;;;;4955556;28;20121;-86
2022/10/24 08:17:05;;;;;;;8.00;2.05;;;16.50;99.90;;;;;;4956275;28;20046;-86
2022/10/24 08:19:32;;;;;;;10.93;2.25;;;16.70;99.90;;;;;;4956259;28;20043;-86
2022/10/24 08:21:59;;;;;;;8.65;1.83;;;16.50;99.90;;;;;;4973087;28;20043;-86
2022/10/24 08:24:24;;;;;;;9.60;2.22;;;16.80;99.90;;;;;;4956450;28;20070;-85
2022/10/24 08:26:50;;;;;;;14.57;2.38;;;17.20;99.90;;;;;;4966693;28;20407;-86
2022/10/24 08:29:21;;;;;;;8.18;2.13;;;16.10;99.90;;;;;;4973054;28;20090;-86
2022/10/24 08:31:52;;;;;;;6.28;1.70;;;16.10;99.90;;;;;;4973888;28;20047;-86
2022/10/24 08:34:19;;;;;;;9.38;1.80;;;16.60;99.90;;;;;;4973661;28;20043;-86
2022/10/24 08:36:46;;;;;;;8.60;1.83;;;16.50;99.90;;;;;;4955719;28;20050;-86
2022/10/24 08:39:12;;;;;;;9.00;1.77;;;16.20;99.90;;;;;;4956345;28;20047;-86
2022/10/24 08:41:42;;;;;;;9.63;1.92;;;16.20;99.90;;;;;;4973571;28;20066;-86
2022/10/24 08:44:32;;;;;;;9.40;2.00;;;16.30;99.90;;;;;;4972979;28;20482;-86
2022/10/24 08:47:27;;;;;;;8.00;1.85;;;16.30;99.90;;;;;;4973732;28;20057;-86
2022/10/24 08:50:15;;;;;;;8.60;2.20;;;16.40;99.90;;;;;;4955757;28;20065;-86
2022/10/24 08:53:04;;;;;;;12.45;2.38;;;16.60;99.90;;;;;;4973716;28;20038;-86
2022/10/24 08:55:36;;;;;;;14.90;2.65;;;16.60;99.90;;;;;;4956152;28;20093;-86
2022/10/24 08:58:03;;;;;;;8.20;1.70;;;16.50;99.90;;;;;;4955405;28;20089;-86
2022/10/24 09:00:42;;;;;;;8.75;1.98;;;16.60;99.90;;;;;;4973032;28;20078;-86
2022/10/24 09:03:29;;;;;;;8.27;1.80;;;16.50;99.90;;;;;;4955081;28;20046;-86
2022/10/24 09:06:12;;;;;;;9.30;2.10;;;16.60;99.90;;;;;;4960024;28;20042;-85
2022/10/24 09:08:42;;;;;;;11.10;1.98;;;16.70;99.90;;;;;;4959742;28;20043;-85
2022/10/24 09:14:25;;;;;;;9.75;2.10;;;17.00;99.90;;;;;;4975257;28;20395;-85
2022/10/24 09:17:23;;;;;;;10.73;2.17;;;16.80;99.90;;;;;;4958786;28;20483;-85
2022/10/24 09:20:25;;;;;;;7.47;1.60;;;17.10;99.90;;;;;;4969980;28;20069;-86
2022/10/24 09:22:54;;;;;;;12.93;2.13;;;17.10;99.90;;;;;;4974227;28;20483;-86
2022/10/24 09:25:22;;;;;;;8.73;1.92;;;17.00;99.90;;;;;;4957884;28;20049;-86
2022/10/24 09:27:49;;;;;;;6.70;1.90;;;17.50;99.90;;;;;;4959467;28;20046;-86
2022/10/24 09:30:21;;;;;;;9.50;2.10;;;17.00;99.90;;;;;;4976088;28;20050;-86
2022/10/24 09:32:47;;;;;;;11.55;2.20;;;17.20;99.90;;;;;;4958737;28;20078;-86
2022/10/24 09:35:25;;;;;;;9.68;2.00;;;17.20;99.90;;;;;;4955429;28;20133;-86
2022/10/24 09:37:55;;;;;;;11.85;2.00;;;17.20;99.90;;;;;;4952719;28;20059;-85
2022/10/24 09:40:32;;;;;;;9.43;1.88;;;17.90;99.90;;;;;;4948432;28;20473;-86
2022/10/24 09:43:09;;;;;;;9.90;2.00;;;17.10;99.90;;;;;;4947716;28;20082;-86
2022/10/24 09:45:47;;;;;;;9.95;1.90;;;17.30;99.90;;;;;;4964452;28;20050;-85
2022/10/24 09:48:27;;;;;;;10.25;1.92;;;17.10;99.90;;;;;;4969587;28;20059;-85
2022/10/24 09:50:54;;;;;;;9.55;1.90;;;17.40;99.90;;;;;;4974614;28;20074;-85
2022/10/24 09:53:23;;;;;;;7.72;2.00;;;17.10;99.90;;;;;;4955526;28;20398;-85
2022/10/24 09:55:52;;;;;;;12.02;2.30;;;17.10;99.90;;;;;;4945507;28;20054;-85
2022/10/24 09:58:21;;;;;;;9.38;1.98;;;17.10;99.90;;;;;;4968714;28;20054;-85
2022/10/24 10:01:00;;;;;;;6.95;2.00;;;17.10;99.90;;;;;;4977096;28;20093;-85
2022/10/24 10:03:27;;;;;;;9.05;2.10;;;17.00;99.90;;;;;;4977993;28;20265;-85
2022/10/24 10:05:59;;;;;;;7.18;1.88;;;17.10;99.90;;;;;;4995426;28;20114;-86
2022/10/24 10:08:32;;;;;;;6.37;1.67;;;17.00;99.90;;;;;;4976119;28;20393;-86
2022/10/24 10:11:05;;;;;;;10.25;2.05;;;16.90;99.90;;;;;;4995105;28;20046;-86
2022/10/24 10:13:37;;;;;;;8.68;2.10;;;16.90;99.90;;;;;;4994449;28;20157;-86
2022/10/24 10:16:06;;;;;;;9.63;1.90;;;16.90;99.90;;;;;;4996774;28;20093;-86
2022/10/24 10:18:45;;;;;;;8.45;1.90;;;16.90;99.90;;;;;;5004544;28;20039;-85
2022/10/24 10:23:53;;;;;;;9.48;2.45;;;16.70;99.90;;;;;;5701784;23;20061;-85
2022/10/24 10:26:26;;;;;;;8.85;1.80;;;17.70;99.90;;;;;;4994763;28;20049;-84
2022/10/24 10:29:29;;;;;;;10.02;1.88;;;16.60;99.90;;;;;;4993645;28;20041;-85
2022/10/24 10:36:18;;;;;;;8.18;1.80;;;15.90;99.90;;;;;;4993785;28;20096;-84
2022/10/24 10:39:27;;;;;;;7.90;1.92;;;15.80;99.90;;;;;;4993982;28;20129;-85
2022/10/24 10:42:00;;;;;;;16.85;4.70;;;15.70;99.90;;;;;;4976205;28;20042;-85
2022/10/24 10:44:55;;;;;;;10.90;2.30;;;15.60;99.90;;;;;;4976850;28;20117;-84
2022/10/24 10:47:52;;;;;;;8.23;1.85;;;15.50;99.90;;;;;;4956994;28;20462;-85
2022/10/24 10:50:22;;;;;;;10.88;2.60;;;15.30;99.90;;;;;;4956537;28;20445;-84
2022/10/24 10:52:57;;;;;;;10.57;2.20;;;15.00;99.90;;;;;;5187032;23;20070;-85
2022/10/24 10:55:36;;;;;;;9.27;2.22;;;15.90;99.90;;;;;;4975216;28;20054;-83
2022/10/24 10:58:27;;;;;;;7.57;1.92;;;15.50;99.90;;;;;;4990102;28;20043;-85
2022/10/24 11:01:07;;;;;;;9.05;2.20;;;14.80;99.90;;;;;;4977060;28;20610;-83
2022/10/24 11:03:58;;;;;;;10.60;2.10;;;15.00;99.90;;;;;;4975604;28;20134;-85
2022/10/24 11:06:36;;;;;;;12.35;2.58;;;15.10;99.90;;;;;;4993619;28;20478;-85
2022/10/24 11:09:08;;;;;;;8.43;2.22;;;15.30;99.90;;;;;;4994105;28;20073;-85
2022/10/24 11:11:38;;;;;;;9.40;2.17;;;15.60;99.90;;;;;;5078822;23;20380;-85
2022/10/24 11:14:32;;;;;;;5.82;1.80;;;16.10;99.90;;;;;;4975425;28;20046;-86
2022/10/24 11:17:25;;;;;;;8.30;1.80;;;16.10;99.90;;;;;;5077884;23;20818;-86
2022/10/24 11:24:00;;;;;;;9.07;2.30;;;16.20;99.90;;;;;;4985673;28;20130;-85
2022/10/24 11:26:51;;;;;;;7.90;1.77;;;15.90;99.90;;;;;;4992381;28;20053;-85
2022/10/24 11:29:37;;;;;;;9.80;1.77;;;16.40;99.90;;;;;;4975878;28;20050;-84
2022/10/24 11:32:30;;;;;;;9.35;1.90;;;16.50;99.90;;;;;;4993088;28;20046;-84
2022/10/24 11:37:28;;;;;;;9.63;1.90;;;16.50;99.90;;;;;;4997541;23;20077;-85
2022/10/24 11:39:59;;;;;;;10.95;2.08;;;16.70;99.90;;;;;;4975558;28;20054;-84
2022/10/24 11:42:59;;;;;;;6.63;1.98;;;16.80;99.90;;;;;;4993398;28;20424;-84
2022/10/24 11:45:39;;;;;;;6.57;1.90;;;16.90;99.90;;;;;;4964870;28;20049;-85
2022/10/24 11:48:21;;;;;;;9.90;2.20;;;17.10;99.90;;;;;;4974430;28;20490;-85
2022/10/24 11:51:12;;;;;;;8.57;2.00;;;17.30;99.90;;;;;;4974226;28;20039;-84
2022/10/24 11:53:38;;;;;;;8.73;1.98;;;17.30;99.90;;;;;;4955690;28;20055;-84
2022/10/24 11:56:18;;;;;;;6.07;1.88;;;17.50;99.90;;;;;;4956701;28;20058;-85
2022/10/24 11:58:58;;;;;;;12.95;2.08;;;16.90;99.90;;;;;;4956783;28;20050;-85
2022/10/24 12:01:48;;;;;;;8.60;2.33;;;16.90;99.90;;;;;;4973565;28;20058;-84
2022/10/24 12:04:44;;;;;;;8.15;1.80;;;16.90;99.90;;;;;;4975786;28;20403;-85
2022/10/24 12:07:30;;;;;;;9.75;2.13;;;16.90;99.90;;;;;;4972986;28;20101;-85
2022/10/24 12:10:24;;;;;;;7.07;2.00;;;16.90;99.90;;;;;;4956406;28;20046;-85
2022/10/24 12:13:03;;;;;;;9.00;1.90;;;16.90;99.90;;;;;;4956843;28;20047;-84
2022/10/24 12:15:50;;;;;;;7.05;1.90;;;16.80;99.90;;;;;;4955992;28;20054;-84
2022/10/24 12:18:33;;;;;;;8.93;1.80;;;16.80;99.90;;;;;;4956427;28;20114;-84
2022/10/24 12:21:06;;;;;;;8.55;1.70;;;16.50;99.90;;;;;;4973103;28;20487;-84
2022/10/24 12:23:32;;;;;;;5.57;1.80;;;16.80;99.90;;;;;;4956338;28;20061;-84
2022/10/24 12:26:01;;;;;;;7.30;1.92;;;17.00;99.90;;;;;;4957349;28;20479;-84
2022/10/24 12:28:27;;;;;;;6.80;1.80;;;16.90;99.90;;;;;;4974374;28;20569;-84
2022/10/24 12:31:35;;;;;;;7.97;1.80;;;17.30;99.90;;;;;;5202311;23;20009;-85
2022/10/24 12:34:27;;;;;;;6.43;1.70;;;16.90;99.90;;;;;;4966066;23;20055;-84
2022/10/24 12:37:30;;;;;;;5.93;1.70;;;16.80;99.90;;;;;;4972412;28;20058;-84
2022/10/24 12:39:56;;;;;;;7.40;1.95;;;16.80;99.90;;;;;;4976640;28;20043;-85
2022/10/24 12:42:22;;;;;;;8.35;1.80;;;16.80;99.90;;;;;;4976568;28;20038;-84
2022/10/24 12:47:41;;;;;;;7.18;1.80;;;16.80;99.90;;;;;;5049355;23;20050;-86
2022/10/24 12:50:22;;;;;;;6.65;1.70;;;16.80;99.90;;;;;;4978573;28;20129;-84
2022/10/24 12:52:47;;;;;;;8.23;2.17;;;16.80;99.90;;;;;;4979170;28;20050;-83
2022/10/24 12:55:31;;;;;;;8.13;1.65;;;16.70;99.90;;;;;;5051206;23;20422;-86
2022/10/24 12:57:57;;;;;;;7.85;1.83;;;16.70;99.90;;;;;;4997194;23;20053;-86
2022/10/24 13:00:29;;;;;;;5.53;1.60;;;16.80;99.90;;;;;;4978545;28;20442;-85
2022/10/24 13:03:07;;;;;;;6.45;1.60;;;16.80;99.90;;;;;;5085031;23;20058;-85
2022/10/24 13:05:59;;;;;;;5.93;1.60;;;16.80;99.90;;;;;;4969259;28;20054;-85
2022/10/24 13:08:59;;;;;;;8.07;2.03;;;17.20;99.90;;;;;;4965550;28;20051;-85
2022/10/24 13:11:48;;;;;;;7.80;2.03;;;16.90;99.90;;;;;;4961728;28;20054;-85
2022/10/24 13:14:48;;;;;;;8.13;2.00;;;16.80;99.90;;;;;;4976782;28;20169;-85
2022/10/24 13:17:46;;;;;;;6.07;1.80;;;16.70;99.90;;;;;;5268902;23;21136;-85
2022/10/24 13:20:33;;;;;;;9.07;2.10;;;16.70;99.90;;;;;;4929283;28;20051;-84
2022/10/24 13:23:20;;;;;;;7.22;2.00;;;16.70;99.90;;;;;;4958182;28;20098;-84
2022/10/24 13:25:47;;;;;;;9.18;1.80;;;17.00;99.90;;;;;;4974527;28;20149;-84
2022/10/24 13:28:26;;;;;;;10.07;2.05;;;16.60;99.90;;;;;;4958099;28;20439;-85
2022/10/24 13:36:46;;;;;;;8.68;2.20;;;15.60;99.90;;;;;;5181568;23;20079;-84
2022/10/24 13:54:22;;;;;;;8.13;2.45;;;14.50;99.90;;;;;;4936569;29;20086;-83
2022/10/24 13:56:48;;;;;;;8.35;2.35;;;14.40;99.90;;;;;;4920268;29;20098;-84
2022/10/24 13:59:36;;;;;;;10.82;2.40;;;14.70;99.90;;;;;;4918832;29;20489;-84